Time;durP1;ratioP1;P1;durP2;ratioP2;P2;SDS_P1;SDS_P2;PMS_P1;PMS_P2;Temp;Humidity;BMP_temperature;BMP_pressure;BME280_temperature;BME280_humidity;BME280_pressure;Samples;Min_cycle;Max_cycle;Signal;HPM_P1;HPM_P2
2023/04/12 00:00:10;;;;;;;2.90;2.20;;;;;;;;;;12988936;22;20091;-80
2023/04/12 00:05:12;;;;;;;5.00;2.80;;;;;;;;;;12987170;22;20566;-80
2023/04/12 00:10:15;;;;;;;4.25;2.35;;;;;;;;;;13031782;22;20007;-83
2023/04/12 00:15:16;;;;;;;7.05;2.67;;;;;;;;;;12989252;22;20007;-81
2023/04/12 00:20:19;;;;;;;4.25;2.28;;;;;;;;;;12953273;22;20003;-80
2023/04/12 00:25:21;;;;;;;4.18;2.47;;;;;;;;;;12974059;22;20315;-79
2023/04/12 00:30:22;;;;;;;3.03;2.40;;;;;;;;;;12973687;22;20016;-79
2023/04/12 00:35:23;;;;;;;5.10;2.10;;;;;;;;;;12993117;22;20071;-76
2023/04/12 00:40:25;;;;;;;3.72;2.30;;;;;;;;;;13006530;22;20004;-82
2023/04/12 00:45:26;;;;;;;6.05;2.40;;;;;;;;;;13048341;22;20000;-81
2023/04/12 00:50:27;;;;;;;3.50;2.30;;;;;;;;;;13017546;22;20000;-81
2023/04/12 00:55:28;;;;;;;3.72;2.50;;;;;;;;;;12972755;22;20536;-82
2023/04/12 01:00:32;;;;;;;3.55;2.42;;;;;;;;;;12946686;22;20345;-81
2023/04/12 01:05:39;;;;;;;2.77;2.50;;;;;;;;;;12973694;22;20020;-79
2023/04/12 01:11:00;;;;;;;3.75;2.10;;;;;;;;;;12973391;22;20015;-79
2023/04/12 01:16:00;;;;;;;3.20;2.58;;;;;;;;;;12947884;22;20349;-81
2023/04/12 01:21:06;;;;;;;4.63;2.72;;;;;;;;;;12971063;22;20019;-79
2023/04/12 01:26:10;;;;;;;4.72;2.95;;;;;;;;;;12951529;22;20059;-84
2023/04/12 01:31:13;;;;;;;3.92;2.78;;;;;;;;;;12988091;22;20016;-83
2023/04/12 01:36:17;;;;;;;5.00;2.88;;;;;;;;;;12996133;22;20019;-78
2023/04/12 01:41:18;;;;;;;3.50;2.47;;;;;;;;;;12971113;22;20037;-79
2023/04/12 01:46:24;;;;;;;3.38;2.65;;;;;;;;;;12972822;22;20332;-79
2023/04/12 01:51:39;;;;;;;4.22;2.47;;;;;;;;;;12975626;22;20142;-83
2023/04/12 01:56:42;;;;;;;4.47;2.58;;;;;;;;;;12946675;22;20102;-80
2023/04/12 02:01:43;;;;;;;2.40;2.13;;;;;;;;;;12971403;22;20470;-80
2023/04/12 02:06:45;;;;;;;6.03;2.30;;;;;;;;;;12940252;22;20355;-79
2023/04/12 02:11:47;;;;;;;3.65;2.20;;;;;;;;;;12915103;22;20082;-80
2023/04/12 02:16:49;;;;;;;4.63;2.35;;;;;;;;;;12939693;22;20051;-79
2023/04/12 02:21:50;;;;;;;4.40;2.75;;;;;;;;;;12983092;22;20018;-82
2023/04/12 02:26:53;;;;;;;4.97;2.70;;;;;;;;;;12944802;22;20049;-80
2023/04/12 02:31:55;;;;;;;3.60;3.20;;;;;;;;;;12949387;22;20015;-82
2023/04/12 02:36:59;;;;;;;4.25;2.10;;;;;;;;;;12948720;22;20023;-83
2023/04/12 02:42:00;;;;;;;4.80;2.30;;;;;;;;;;12957384;22;20100;-77
2023/04/12 02:47:02;;;;;;;4.28;2.20;;;;;;;;;;12969276;22;20464;-79
2023/04/12 02:52:05;;;;;;;3.63;2.22;;;;;;;;;;12944913;22;20066;-80
2023/04/12 02:57:16;;;;;;;5.93;2.50;;;;;;;;;;12978559;22;20018;-83
2023/04/12 03:02:20;;;;;;;4.75;2.63;;;;;;;;;;13008845;22;20086;-77
2023/04/12 03:07:21;;;;;;;5.15;2.33;;;;;;;;;;12932208;22;20016;-79
2023/04/12 03:12:27;;;;;;;2.72;2.25;;;;;;;;;;12968630;22;20161;-78
2023/04/12 03:17:47;;;;;;;3.90;2.33;;;;;;;;;;12940509;22;20122;-79
2023/04/12 03:22:51;;;;;;;5.93;3.15;;;;;;;;;;12971485;22;20388;-80
2023/04/12 03:27:53;;;;;;;5.95;2.97;;;;;;;;;;12968084;22;20031;-78
2023/04/12 03:32:58;;;;;;;5.55;2.53;;;;;;;;;;12937026;22;20150;-79
2023/04/12 03:38:00;;;;;;;4.88;2.75;;;;;;;;;;12914484;22;20118;-78
2023/04/12 03:43:00;;;;;;;4.47;2.50;;;;;;;;;;12939392;22;20083;-79
2023/04/12 03:48:01;;;;;;;6.55;2.35;;;;;;;;;;12937852;22;20027;-79
2023/04/12 03:53:06;;;;;;;5.80;2.50;;;;;;;;;;12926906;22;20016;-81
2023/04/12 03:58:12;;;;;;;4.95;2.40;;;;;;;;;;12938432;22;20027;-84
2023/04/12 04:03:17;;;;;;;4.00;2.22;;;;;;;;;;12980296;22;20095;-83
2023/04/12 04:08:37;;;;;;;6.18;2.20;;;;;;;;;;12969617;22;20012;-80
2023/04/12 04:13:40;;;;;;;5.07;2.60;;;;;;;;;;12916469;22;20016;-79
2023/04/12 04:18:43;;;;;;;4.68;2.45;;;;;;;;;;12919841;22;20099;-78
2023/04/12 04:23:51;;;;;;;3.60;2.10;;;;;;;;;;12943826;22;20026;-82
2023/04/12 04:29:00;;;;;;;8.45;2.90;;;;;;;;;;12943775;22;20012;-79
2023/04/12 04:34:05;;;;;;;5.55;3.47;;;;;;;;;;12940758;22;20146;-80
2023/04/12 04:39:08;;;;;;;4.18;2.88;;;;;;;;;;12940083;22;20532;-79
2023/04/12 04:44:13;;;;;;;5.38;2.60;;;;;;;;;;12939000;22;20016;-79
2023/04/12 04:49:22;;;;;;;4.18;3.15;;;;;;;;;;12938371;22;20077;-77
2023/04/12 04:54:22;;;;;;;8.37;3.80;;;;;;;;;;12968285;22;20015;-78
2023/04/12 04:59:24;;;;;;;4.88;2.95;;;;;;;;;;12999831;22;20234;-82
2023/04/12 05:04:30;;;;;;;5.55;3.20;;;;;;;;;;13007732;22;19995;-82
2023/04/12 05:09:30;;;;;;;6.47;3.05;;;;;;;;;;13013001;22;20000;-79
2023/04/12 05:14:32;;;;;;;5.93;3.20;;;;;;;;;;13043519;22;20020;-82
2023/04/12 05:19:32;;;;;;;6.68;3.30;;;;;;;;;;13015687;22;20020;-83
2023/04/12 05:24:33;;;;;;;6.65;3.70;;;;;;;;;;13014154;22;20003;-79
2023/04/12 05:29:34;;;;;;;8.23;3.75;;;;;;;;;;13004187;22;20364;-77
2023/04/12 05:34:36;;;;;;;6.03;3.10;;;;;;;;;;12995496;22;20047;-77
2023/04/12 05:39:37;;;;;;;6.22;3.50;;;;;;;;;;12990149;22;20718;-78
2023/04/12 05:44:44;;;;;;;7.72;3.80;;;;;;;;;;12980587;22;20099;-77
2023/04/12 05:49:46;;;;;;;7.38;4.07;;;;;;;;;;12945648;22;20059;-77
2023/04/12 05:54:47;;;;;;;10.60;5.20;;;;;;;;;;12920063;22;20114;-78
2023/04/12 05:59:50;;;;;;;9.25;5.18;;;;;;;;;;12943996;22;20015;-78
2023/04/12 06:04:52;;;;;;;7.10;4.50;;;;;;;;;;12919322;22;20662;-81
2023/04/12 06:09:54;;;;;;;6.32;3.30;;;;;;;;;;12943673;22;20030;-80
2023/04/12 06:14:56;;;;;;;7.25;3.92;;;;;;;;;;12944907;22;20020;-82
2023/04/12 06:19:58;;;;;;;6.68;4.05;;;;;;;;;;12944790;22;20016;-81
2023/04/12 06:25:01;;;;;;;8.05;4.55;;;;;;;;;;12940886;22;20008;-80
2023/04/12 06:30:03;;;;;;;6.40;3.80;;;;;;;;;;12969427;22;20618;-80
2023/04/12 06:35:07;;;;;;;11.85;5.18;;;;;;;;;;12941746;22;20027;-81
2023/04/12 06:40:11;;;;;;;9.02;4.78;;;;;;;;;;12969687;22;20716;-82
2023/04/12 06:45:11;;;;;;;6.95;4.57;;;;;;;;;;12942025;22;20087;-80
2023/04/12 06:50:13;;;;;;;7.65;4.68;;;;;;;;;;12916587;22;20068;-81
2023/04/12 06:55:15;;;;;;;5.00;4.30;;;;;;;;;;12969859;22;20059;-81
2023/04/12 07:00:17;;;;;;;5.10;4.10;;;;;;;;;;12971407;22;20262;-80
2023/04/12 07:10:29;;;;;;;7.13;3.92;;;;;;;;;;12903778;23;20401;-80
2023/04/12 07:15:29;;;;;;;6.53;3.97;;;;;;;;;;12904069;23;20023;-78
2023/04/12 07:20:31;;;;;;;4.85;3.30;;;;;;;;;;12907314;23;20258;-78
2023/04/12 07:25:39;;;;;;;5.57;3.50;;;;;;;;;;12909587;23;20022;-80
2023/04/12 07:30:44;;;;;;;4.53;3.08;;;;;;;;;;12905240;22;20398;-84
2023/04/12 07:35:44;;;;;;;4.82;3.53;;;;;;;;;;12956021;22;20035;-80
2023/04/12 07:40:46;;;;;;;4.78;3.20;;;;;;;;;;13022556;22;20075;-81
2023/04/12 07:45:48;;;;;;;5.00;3.30;;;;;;;;;;13023390;22;20073;-79
2023/04/12 07:50:49;;;;;;;7.43;4.50;;;;;;;;;;13006657;22;20430;-77
2023/04/12 07:55:51;;;;;;;6.43;4.40;;;;;;;;;;13005430;22;20015;-81
2023/04/12 08:00:52;;;;;;;6.68;4.40;;;;;;;;;;13024159;22;20075;-80
2023/04/12 08:05:52;;;;;;;6.30;4.60;;;;;;;;;;12983882;22;20027;-78
2023/04/12 08:10:56;;;;;;;7.13;4.50;;;;;;;;;;12891930;23;20031;-77
2023/04/12 08:15:56;;;;;;;;;;;;;;;;;;12859979;23;20027;-76
2023/04/12 08:20:58;;;;;;;6.32;4.88;;;;;;;;;;12880123;23;19911;-79
2023/04/12 08:26:02;;;;;;;8.98;5.50;;;;;;;;;;12879745;23;20047;-79
2023/04/12 08:31:05;;;;;;;6.43;4.63;;;;;;;;;;12907629;22;20019;-79
2023/04/12 08:36:07;;;;;;;;;;;;;;;;;;12915008;23;20426;-78
2023/04/12 08:41:08;;;;;;;6.22;4.63;;;;;;;;;;12885484;23;19943;-78
2023/04/12 08:46:09;;;;;;;5.03;4.15;;;;;;;;;;12886249;23;20038;-80
2023/04/12 08:51:14;;;;;;;6.70;4.03;;;;;;;;;;12863731;22;20051;-82
2023/04/12 08:56:15;;;;;;;6.40;4.55;;;;;;;;;;12915691;23;20154;-81
2023/04/12 09:01:19;;;;;;;5.20;4.13;;;;;;;;;;12924883;23;20020;-79
2023/04/12 09:06:20;;;;;;;6.15;4.32;;;;;;;;;;12915940;22;20922;-79
2023/04/12 09:11:29;;;;;;;6.50;3.90;;;;;;;;;;12884065;23;20014;-78
2023/04/12 09:16:41;;;;;;;4.22;3.05;;;;;;;;;;12909974;23;20024;-78
2023/04/12 09:21:53;;;;;;;4.32;3.78;;;;;;;;;;12909383;22;20377;-79
2023/04/12 09:27:03;;;;;;;5.13;3.30;;;;;;;;;;12884792;22;20532;-81
2023/04/12 09:32:09;;;;;;;6.57;3.80;;;;;;;;;;12926745;23;20075;-79
2023/04/12 09:37:16;;;;;;;5.63;3.45;;;;;;;;;;12889401;23;20032;-84
2023/04/12 09:42:18;;;;;;;5.50;3.20;;;;;;;;;;12968129;22;20024;-83
2023/04/12 09:47:18;;;;;;;5.13;3.67;;;;;;;;;;12975123;22;20056;-82
2023/04/12 09:52:21;;;;;;;5.70;3.60;;;;;;;;;;12936400;22;20039;-83
2023/04/12 09:57:29;;;;;;;4.85;3.60;;;;;;;;;;12904521;23;20059;-79
2023/04/12 10:02:29;;;;;;;7.35;4.40;;;;;;;;;;12916383;22;20082;-78
2023/04/12 10:07:30;;;;;;;4.53;3.50;;;;;;;;;;12915076;22;20047;-81
2023/04/12 10:12:33;;;;;;;3.97;2.97;;;;;;;;;;12943329;22;20051;-80
2023/04/12 10:17:34;;;;;;;3.38;3.08;;;;;;;;;;12915882;23;20751;-79
2023/04/12 10:22:37;;;;;;;3.33;2.85;;;;;;;;;;12926450;23;20046;-78
2023/04/12 10:27:39;;;;;;;4.78;4.10;;;;;;;;;;12821521;23;20452;-81
2023/04/12 10:32:41;;;;;;;5.13;3.92;;;;;;;;;;12822703;23;20009;-80
2023/04/12 10:38:03;;;;;;;4.90;3.70;;;;;;;;;;12788736;23;20027;-80
2023/04/12 10:43:23;;;;;;;5.35;3.95;;;;;;;;;;12730295;23;20021;-80
2023/04/12 10:48:27;;;;;;;5.25;4.32;;;;;;;;;;12755108;23;20152;-81
2023/04/12 10:53:28;;;;;;;6.30;4.60;;;;;;;;;;12783743;23;20047;-77
2023/04/12 10:58:48;;;;;;;4.40;3.65;;;;;;;;;;12758206;23;20112;-81
2023/04/12 11:04:04;;;;;;;6.35;4.32;;;;;;;;;;12753767;23;20017;-80
2023/04/12 11:09:20;;;;;;;4.45;3.30;;;;;;;;;;12781161;23;20319;-80
2023/04/12 11:14:24;;;;;;;4.40;3.45;;;;;;;;;;12756832;23;20071;-79
2023/04/12 11:19:26;;;;;;;4.70;3.33;;;;;;;;;;12755203;23;20033;-80
2023/04/12 11:24:27;;;;;;;4.72;3.65;;;;;;;;;;12785795;23;20409;-79
2023/04/12 11:29:34;;;;;;;3.60;3.20;;;;;;;;;;12754771;23;20745;-79
2023/04/12 11:34:40;;;;;;;5.20;3.67;;;;;;;;;;12758200;23;20024;-79
2023/04/12 11:39:43;;;;;;;7.28;3.65;;;;;;;;;;12782967;23;20385;-81
2023/04/12 11:44:45;;;;;;;5.30;3.70;;;;;;;;;;12781959;23;20009;-80
2023/04/12 11:49:51;;;;;;;4.55;3.75;;;;;;;;;;12782888;23;20009;-81
2023/04/12 11:54:55;;;;;;;5.55;3.72;;;;;;;;;;12784646;23;20028;-80
2023/04/12 11:59:58;;;;;;;6.20;4.00;;;;;;;;;;12786022;23;20108;-80
2023/04/12 12:04:59;;;;;;;5.75;4.38;;;;;;;;;;12781073;23;20016;-78
2023/04/12 12:10:01;;;;;;;6.28;4.40;;;;;;;;;;12784383;23;20050;-81
2023/04/12 12:15:04;;;;;;;6.78;4.40;;;;;;;;;;12787063;23;20024;-80
2023/04/12 12:20:17;;;;;;;6.97;4.43;;;;;;;;;;12788236;23;20383;-80
2023/04/12 12:25:18;;;;;;;5.63;4.32;;;;;;;;;;12761091;23;20021;-80
2023/04/12 12:30:20;;;;;;;5.40;4.13;;;;;;;;;;12825992;23;19997;-81
2023/04/12 12:35:20;;;;;;;5.40;4.07;;;;;;;;;;12825155;23;20028;-81
2023/04/12 12:40:30;;;;;;;6.95;4.53;;;;;;;;;;12797225;23;20011;-79
2023/04/12 12:45:32;;;;;;;5.90;4.43;;;;;;;;;;12789577;23;20021;-80
2023/04/12 12:50:36;;;;;;;5.22;4.28;;;;;;;;;;12787036;23;20257;-80
2023/04/12 12:55:38;;;;;;;6.60;4.95;;;;;;;;;;12759029;23;20478;-80
2023/04/12 13:00:40;;;;;;;5.27;4.13;;;;;;;;;;12759560;23;20080;-80
2023/04/12 13:05:43;;;;;;;6.95;4.38;;;;;;;;;;12785340;23;20495;-79
2023/04/12 13:10:43;;;;;;;5.97;4.65;;;;;;;;;;12757690;23;20005;-78
2023/04/12 13:15:47;;;;;;;6.78;4.55;;;;;;;;;;12756030;23;20359;-80
2023/04/12 13:20:48;;;;;;;8.90;5.57;;;;;;;;;;12782325;23;20321;-79
2023/04/12 13:25:50;;;;;;;6.47;4.25;;;;;;;;;;12730872;23;20112;-80
2023/04/12 13:30:50;;;;;;;7.60;5.20;;;;;;;;;;12777983;23;20051;-80
2023/04/12 13:35:52;;;;;;;7.15;5.22;;;;;;;;;;12756877;23;20206;-80
2023/04/12 13:40:52;;;;;;;8.13;5.60;;;;;;;;;;12755432;23;20017;-80
2023/04/12 13:45:53;;;;;;;7.30;5.57;;;;;;;;;;12782974;23;20040;-82
2023/04/12 13:50:53;;;;;;;6.57;4.95;;;;;;;;;;12757509;23;20264;-81
2023/04/12 13:55:59;;;;;;;7.10;4.90;;;;;;;;;;12760194;23;20024;-80
2023/04/12 14:01:02;;;;;;;6.38;5.35;;;;;;;;;;12764277;23;20009;-82
2023/04/12 14:06:08;;;;;;;7.88;5.10;;;;;;;;;;12745870;23;20074;-82
2023/04/12 14:11:14;;;;;;;5.93;5.15;;;;;;;;;;12742421;23;20076;-81
2023/04/12 14:16:23;;;;;;;5.90;4.55;;;;;;;;;;12785251;23;20115;-81
2023/04/12 14:21:27;;;;;;;8.10;5.30;;;;;;;;;;12781420;23;20021;-80
2023/04/12 14:26:29;;;;;;;5.88;4.85;;;;;;;;;;12732690;23;20032;-81
2023/04/12 14:31:31;;;;;;;5.60;4.47;;;;;;;;;;12781323;23;20021;-80
2023/04/12 14:36:33;;;;;;;6.90;5.20;;;;;;;;;;12781228;23;20021;-82
2023/04/12 14:41:34;;;;;;;8.05;6.15;;;;;;;;;;12761363;23;20013;-81
2023/04/12 14:46:35;;;;;;;5.95;4.82;;;;;;;;;;12764816;23;20012;-82
2023/04/12 14:51:41;;;;;;;7.00;5.57;;;;;;;;;;12797413;23;20330;-83
2023/04/12 14:56:42;;;;;;;6.28;4.78;;;;;;;;;;12852283;23;20012;-81
2023/04/12 15:01:42;;;;;;;5.72;4.10;;;;;;;;;;12854518;23;20007;-82
2023/04/12 15:06:43;;;;;;;5.95;4.93;;;;;;;;;;12794191;23;20036;-81
2023/04/12 15:11:45;;;;;;;4.97;4.30;;;;;;;;;;12759589;23;20017;-81
2023/04/12 15:16:47;;;;;;;5.38;4.50;;;;;;;;;;12793163;23;20055;-81
2023/04/12 15:21:51;;;;;;;6.15;4.35;;;;;;;;;;12763142;23;20658;-84
2023/04/12 15:26:51;;;;;;;6.80;4.30;;;;;;;;;;12790755;23;20461;-81
2023/04/12 15:31:55;;;;;;;8.18;4.20;;;;;;;;;;12789484;23;20009;-82
2023/04/12 15:37:01;;;;;;;5.75;4.40;;;;;;;;;;12790148;23;20048;-83
2023/04/12 15:42:01;;;;;;;5.90;3.85;;;;;;;;;;12788916;23;20064;-83
2023/04/12 15:47:04;;;;;;;4.43;3.10;;;;;;;;;;12788922;23;20056;-85
2023/04/12 15:52:09;;;;;;;5.45;2.90;;;;;;;;;;12764608;23;20088;-83
2023/04/12 15:57:11;;;;;;;3.72;2.75;;;;;;;;;;12770815;23;20025;-84
2023/04/12 16:02:12;;;;;;;3.05;2.40;;;;;;;;;;12772970;23;20023;-82
2023/04/12 16:07:13;;;;;;;4.85;3.03;;;;;;;;;;12793146;23;20017;-82
2023/04/12 16:12:17;;;;;;;3.17;2.50;;;;;;;;;;12792497;23;20669;-81
2023/04/12 16:17:19;;;;;;;3.22;2.60;;;;;;;;;;12764396;23;20048;-81
2023/04/12 16:22:21;;;;;;;3.95;2.75;;;;;;;;;;12766232;23;20020;-83
2023/04/12 16:27:25;;;;;;;5.47;3.40;;;;;;;;;;12763096;23;20025;-81
2023/04/12 16:32:25;;;;;;;6.10;4.00;;;;;;;;;;12769918;23;20489;-83
2023/04/12 16:37:36;;;;;;;6.38;4.72;;;;;;;;;;12742059;23;20103;-83
2023/04/12 16:42:46;;;;;;;6.45;4.50;;;;;;;;;;12772008;23;20016;-85
2023/04/12 16:47:47;;;;;;;5.47;3.63;;;;;;;;;;12794193;23;20013;-84
2023/04/12 16:52:58;;;;;;;5.32;3.63;;;;;;;;;;12790156;23;20017;-81
2023/04/12 16:58:03;;;;;;;4.93;4.30;;;;;;;;;;12789520;23;20017;-81
2023/04/12 17:03:06;;;;;;;4.45;3.10;;;;;;;;;;12770137;23;20029;-80
2023/04/12 17:08:08;;;;;;;3.88;2.20;;;;;;;;;;12788009;23;20009;-81
2023/04/12 17:13:14;;;;;;;2.50;1.27;;;;;;;;;;12804436;23;20070;-81
2023/04/12 17:24:10;;;;;;;4.50;2.83;;;;;;;;;;12851092;23;20076;-77
2023/04/12 17:29:12;;;;;;;3.17;1.63;;;;;;;;;;12852733;23;19993;-79
2023/04/12 17:34:13;;;;;;;1.58;1.35;;;;;;;;;;12826514;23;20106;-84
2023/04/12 17:39:18;;;;;;;3.33;2.10;;;;;;;;;;12782788;23;20463;-79
2023/04/12 17:44:19;;;;;;;1.73;1.15;;;;;;;;;;12851303;23;20012;-82
2023/04/12 17:49:24;;;;;;;1.33;1.13;;;;;;;;;;12848888;23;20100;-81
2023/04/12 17:54:25;;;;;;;3.53;1.83;;;;;;;;;;12825893;23;20005;-82
2023/04/12 17:59:30;;;;;;;3.35;1.75;;;;;;;;;;12899493;23;19992;-80
2023/04/12 18:04:31;;;;;;;2.70;1.70;;;;;;;;;;12875583;23;20415;-81
2023/04/12 18:09:32;;;;;;;3.45;1.40;;;;;;;;;;12881166;23;20016;-80
2023/04/12 18:14:32;;;;;;;2.15;1.00;;;;;;;;;;12904761;23;20005;-81
2023/04/12 18:19:33;;;;;;;2.40;1.80;;;;;;;;;;12882442;22;20003;-82
2023/04/12 18:24:35;;;;;;;2.30;1.20;;;;;;;;;;12875595;22;20267;-80
2023/04/12 18:29:37;;;;;;;1.87;1.07;;;;;;;;;;12857062;23;20346;-80
2023/04/12 18:34:38;;;;;;;1.27;1.00;;;;;;;;;;12891891;23;20260;-80
2023/04/12 18:39:41;;;;;;;1.90;1.58;;;;;;;;;;12804175;23;20032;-82
2023/04/12 18:44:43;;;;;;;2.40;1.88;;;;;;;;;;12861080;23;20788;-81
2023/04/12 18:49:49;;;;;;;2.22;1.70;;;;;;;;;;12862087;23;20020;-81
2023/04/12 18:54:51;;;;;;;2.00;1.40;;;;;;;;;;12914365;23;20782;-80
2023/04/12 18:59:52;;;;;;;2.83;2.33;;;;;;;;;;12902482;22;20824;-83
2023/04/12 19:04:53;;;;;;;3.90;2.30;;;;;;;;;;12891437;22;20038;-83
2023/04/12 19:09:56;;;;;;;2.30;1.67;;;;;;;;;;12872611;23;20020;-86
2023/04/12 19:14:58;;;;;;;2.30;1.80;;;;;;;;;;12925080;23;20024;-83
2023/04/12 19:20:22;;;;;;;;;;;;;;;;;;12888334;23;20390;-82
2023/04/12 19:25:29;;;;;;;2.72;1.73;;;;;;;;;;12908900;22;19912;-80
2023/04/12 19:30:31;;;;;;;3.22;1.85;;;;;;;;;;12907690;23;21066;-82
2023/04/12 19:35:34;;;;;;;3.05;2.05;;;;;;;;;;12901671;23;20020;-80
2023/04/12 19:40:43;;;;;;;2.42;2.00;;;;;;;;;;12954066;22;20007;-83
2023/04/12 19:46:11;;;;;;;3.10;1.90;;;;;;;;;;12967310;22;20314;-81
2023/04/12 19:51:14;;;;;;;2.80;2.28;;;;;;;;;;12950714;22;20003;-80
2023/04/12 19:56:15;;;;;;;3.78;2.33;;;;;;;;;;12901209;23;20016;-83
2023/04/12 20:01:19;;;;;;;2.60;2.30;;;;;;;;;;12916503;22;20012;-83
2023/04/12 20:22:41;;;;;;;3.20;2.28;;;;;;;;;;12857818;23;20080;-82
2023/04/12 20:27:47;;;;;;;3.28;2.92;;;;;;;;;;12916958;23;20038;-82
2023/04/12 20:38:19;;;;;;;3.88;2.92;;;;;;;;;;12929102;22;20019;-84
2023/04/12 20:43:24;;;;;;;2.75;2.03;;;;;;;;;;12927075;23;20004;-83
2023/04/12 20:48:26;;;;;;;2.63;2.10;;;;;;;;;;12887536;23;20121;-84
2023/04/12 20:53:29;;;;;;;2.78;2.30;;;;;;;;;;12941758;22;20014;-89
2023/04/12 20:58:34;;;;;;;2.50;2.30;;;;;;;;;;12939331;22;20027;-85
2023/04/12 21:03:40;;;;;;;3.63;2.25;;;;;;;;;;12916936;23;20023;-84
2023/04/12 21:08:42;;;;;;;4.57;2.50;;;;;;;;;;12999231;22;20133;-85
2023/04/12 21:13:44;;;;;;;2.92;2.40;;;;;;;;;;13015861;22;20016;-82
2023/04/12 21:18:49;;;;;;;2.72;2.42;;;;;;;;;;12971993;22;20030;-82
2023/04/12 21:23:54;;;;;;;2.65;2.40;;;;;;;;;;12955533;22;20539;-81
2023/04/12 21:28:55;;;;;;;2.92;2.47;;;;;;;;;;12958995;22;20007;-82
2023/04/12 21:33:59;;;;;;;4.18;2.97;;;;;;;;;;12988270;22;20078;-84
2023/04/12 21:39:00;;;;;;;3.95;2.83;;;;;;;;;;12985518;22;20114;-86
2023/04/12 21:44:01;;;;;;;3.43;2.67;;;;;;;;;;12999713;22;20019;-83
2023/04/12 21:49:06;;;;;;;3.40;2.78;;;;;;;;;;12990305;22;20251;-85
2023/04/12 21:54:12;;;;;;;3.85;2.65;;;;;;;;;;13018496;22;20011;-84
2023/04/12 21:59:14;;;;;;;3.97;3.22;;;;;;;;;;13020794;22;20008;-87
2023/04/12 22:04:17;;;;;;;4.63;2.88;;;;;;;;;;13020592;22;20015;-87
2023/04/12 22:09:23;;;;;;;6.45;3.33;;;;;;;;;;13018496;22;20030;-84
2023/04/12 22:14:26;;;;;;;4.85;3.40;;;;;;;;;;13046815;22;20030;-83
2023/04/12 22:19:30;;;;;;;4.75;3.15;;;;;;;;;;12959317;22;20444;-82
2023/04/12 22:24:35;;;;;;;3.97;3.13;;;;;;;;;;12958346;22;20016;-87
2023/04/12 22:29:36;;;;;;;4.78;3.42;;;;;;;;;;13002909;22;20090;-83
2023/04/12 22:34:41;;;;;;;3.80;2.58;;;;;;;;;;12968102;22;20491;-82
2023/04/12 22:39:50;;;;;;;4.15;2.70;;;;;;;;;;12985114;22;20015;-82
2023/04/12 22:44:53;;;;;;;3.08;2.58;;;;;;;;;;12982724;22;20136;-81
2023/04/12 22:49:59;;;;;;;6.90;2.80;;;;;;;;;;12970357;22;20076;-82
2023/04/12 22:55:04;;;;;;;2.67;1.95;;;;;;;;;;12974518;22;20275;-81
2023/04/12 23:00:16;;;;;;;2.15;1.40;;;;;;;;;;12968069;22;20023;-81
2023/04/12 23:05:20;;;;;;;2.30;1.20;;;;;;;;;;12942405;22;20356;-81
2023/04/12 23:10:23;;;;;;;2.47;1.00;;;;;;;;;;12970710;22;20011;-78
2023/04/12 23:15:27;;;;;;;1.70;1.10;;;;;;;;;;12942362;22;20034;-79
2023/04/12 23:20:29;;;;;;;1.95;0.90;;;;;;;;;;12970875;22;20012;-78
2023/04/12 23:25:41;;;;;;;1.20;0.98;;;;;;;;;;12977306;22;20019;-82
2023/04/12 23:30:48;;;;;;;1.00;0.90;;;;;;;;;;12977207;22;20068;-80
2023/04/12 23:35:54;;;;;;;1.95;1.30;;;;;;;;;;12975824;22;20032;-78
2023/04/12 23:40:55;;;;;;;1.48;1.13;;;;;;;;;;13016983;22;20007;-81
2023/04/12 23:45:56;;;;;;;1.75;1.45;;;;;;;;;;12995148;22;20432;-80
2023/04/12 23:50:56;;;;;;;1.50;1.40;;;;;;;;;;12941759;22;20078;-81
2023/04/12 23:55:58;;;;;;;2.85;1.42;;;;;;;;;;12973994;22;20011;-82
